createdAt,value
2018-06-14T00:00:18.308Z,98213.58
2018-06-14T00:02:50.684Z,98217.39
2018-06-14T00:05:21.391Z,98220.19
2018-06-14T00:07:51.295Z,98220.02
2018-06-14T00:10:21.040Z,98222.28
2018-06-14T00:12:55.899Z,98223.73
2018-06-14T00:15:26.324Z,98226.45
2018-06-14T00:17:55.941Z,98226.58
2018-06-14T00:20:25.813Z,98227.89
2018-06-14T00:22:55.944Z,98221.69
2018-06-14T00:25:26.715Z,98220.23
2018-06-14T00:27:56.428Z,98221.17
2018-06-14T00:30:27.291Z,98222.16
2018-06-14T00:32:56.957Z,98210.66
2018-06-14T00:35:27.366Z,98220.23
2018-06-14T00:37:57.760Z,98214.81
2018-06-14T00:40:27.634Z,98210.69
2018-06-14T00:42:57.491Z,98206.03
2018-06-14T00:45:27.258Z,98202.69
2018-06-14T00:47:56.961Z,98202.31
2018-06-14T00:50:26.666Z,98200.36
2018-06-14T00:52:57.861Z,98197.75
2018-06-14T00:55:27.606Z,98201.20
2018-06-14T00:57:58.768Z,98202.64
2018-06-14T01:00:28.453Z,98204.45
2018-06-14T01:02:58.391Z,98204.77
2018-06-14T01:05:28.385Z,98211.25
2018-06-14T01:07:58.695Z,98208.47
2018-06-14T01:10:28.457Z,98219.23
2018-06-14T01:12:58.394Z,98207.91
2018-06-14T01:15:32.428Z,98199.39
2018-06-14T01:18:02.593Z,98209.53
2018-06-14T01:20:32.487Z,98215.98
2018-06-14T01:23:02.507Z,98211.77
2018-06-14T01:25:32.183Z,98215.59
2018-06-14T01:28:02.611Z,98211.17
2018-06-14T01:30:33.306Z,98203.41
2018-06-14T01:33:03.373Z,98203.04
2018-06-14T01:35:33.310Z,98199.78
2018-06-14T01:38:15.196Z,98212.30
2018-06-14T01:40:45.080Z,98203.52
2018-06-14T01:43:14.745Z,98208.05
2018-06-14T01:45:44.872Z,98202.04
2018-06-14T01:48:14.599Z,98197.16
2018-06-14T01:50:44.251Z,98176.77
2018-06-14T01:53:14.076Z,98194.09
2018-06-14T01:55:43.815Z,98192.16
2018-06-14T01:58:13.502Z,98188.52
2018-06-14T02:00:44.974Z,98190.75
2018-06-14T02:03:14.711Z,98184.87
2018-06-14T02:05:44.436Z,98195.13
2018-06-14T02:08:14.449Z,98195.91
2018-06-14T02:10:44.360Z,98192.97
2018-06-14T02:13:14.105Z,98193.06
2018-06-14T02:15:47.083Z,98192.25
2018-06-14T02:18:17.735Z,98186.16
2018-06-14T02:20:48.387Z,98188.34
2018-06-14T02:23:18.518Z,98193.45
2018-06-14T02:25:48.601Z,98188.19
2018-06-14T02:28:18.316Z,98187.09
2018-06-14T02:30:49.068Z,98180.02
2018-06-14T02:33:19.285Z,98177.02
2018-06-14T02:35:49.227Z,98170.20
2018-06-14T02:38:21.716Z,98174.61
2018-06-14T02:40:53.629Z,98182.50
2018-06-14T02:43:23.347Z,98183.69
2018-06-14T02:45:53.689Z,98184.46
2018-06-14T02:48:24.633Z,98182.09
2018-06-14T02:50:55.265Z,98178.74
2018-06-14T02:53:25.033Z,98189.50
2018-06-14T02:55:56.397Z,98189.63
2018-06-14T02:58:26.190Z,98189.97
2018-06-14T03:00:55.823Z,98191.34
2018-06-14T03:03:26.220Z,98195.20
2018-06-14T03:05:59.700Z,98186.81
2018-06-14T03:08:31.093Z,98189.81
2018-06-14T03:11:01.235Z,98192.78
2018-06-14T03:13:30.914Z,98191.12
2018-06-14T03:16:04.231Z,98181.15
2018-06-14T03:18:35.056Z,98190.41
2018-06-14T03:21:04.824Z,98188.00
2018-06-14T03:26:28.888Z,98184.41
2018-06-14T03:28:58.500Z,98182.71
2018-06-14T03:31:28.253Z,98183.88
2018-06-14T03:33:57.913Z,98183.16
2018-06-14T03:36:32.682Z,98179.80
2018-06-14T03:39:02.968Z,98188.59
2018-06-14T03:41:32.673Z,98183.31
2018-06-14T03:44:02.388Z,98187.13
2018-06-14T03:46:37.197Z,98190.72
2018-06-14T03:49:06.916Z,98187.75
2018-06-14T03:51:37.222Z,98188.44
2018-06-14T03:54:07.112Z,98191.81
2018-06-14T03:56:37.295Z,98191.03
2018-06-14T03:59:07.304Z,98193.88
2018-06-14T04:01:37.348Z,98196.41
2018-06-14T04:04:09.642Z,98202.64
2018-06-14T04:06:39.647Z,98199.91
2018-06-14T04:09:12.133Z,98200.98
2018-06-14T04:11:41.844Z,98195.09
2018-06-14T04:14:12.295Z,98198.91
2018-06-14T04:16:42.038Z,98195.22
2018-06-14T04:19:11.992Z,98203.48
2018-06-14T04:21:41.655Z,98205.36
2018-06-14T04:24:11.488Z,98207.73
2018-06-14T04:26:41.220Z,98201.17
2018-06-14T04:29:11.180Z,98196.23
2018-06-14T04:31:40.807Z,98198.80
2018-06-14T04:34:10.596Z,98198.17
2018-06-14T04:36:42.749Z,98205.56
2018-06-14T04:39:17.692Z,98202.94
2018-06-14T04:41:53.365Z,98201.16
2018-06-14T04:44:25.488Z,98194.87
2018-06-14T04:47:04.795Z,98201.59
2018-06-14T04:49:34.574Z,98197.89
2018-06-14T04:52:07.681Z,98202.95
2018-06-14T04:54:38.276Z,98200.94
2018-06-14T04:57:08.994Z,98211.55
2018-06-14T04:59:40.116Z,98207.77
2018-06-14T05:02:10.329Z,98200.97
2018-06-14T05:04:41.004Z,98213.06
2018-06-14T05:07:12.205Z,98207.10
2018-06-14T05:09:41.853Z,98203.55
2018-06-14T05:12:12.928Z,98194.83
2018-06-14T05:14:44.373Z,98202.40
2018-06-14T05:17:14.287Z,98202.63
2018-06-14T05:19:46.341Z,98208.37
2018-06-14T05:22:16.175Z,98212.46
2018-06-14T05:24:46.231Z,98208.39
2018-06-14T05:27:16.400Z,98212.17
2018-06-14T05:29:46.375Z,98215.88
2018-06-14T05:32:16.286Z,98211.19
2018-06-14T05:34:45.919Z,98213.70
2018-06-14T05:37:15.606Z,98217.31
2018-06-14T05:39:45.263Z,98216.94
2018-06-14T05:42:14.925Z,98214.28
2018-06-14T05:44:45.180Z,98225.40
2018-06-14T05:47:15.075Z,98223.98
2018-06-14T05:49:44.766Z,98223.50
2018-06-14T05:52:14.758Z,98223.25
2018-06-14T05:54:45.228Z,98225.75
2018-06-14T05:57:15.311Z,98213.41
2018-06-14T05:59:46.140Z,98226.95
2018-06-14T06:02:15.766Z,98218.66
2018-06-14T06:04:45.850Z,98230.16
2018-06-14T06:07:15.730Z,98224.73
2018-06-14T06:09:45.992Z,98224.73
2018-06-14T06:12:15.804Z,98219.78
2018-06-14T06:14:45.503Z,98227.47
2018-06-14T06:17:15.883Z,98215.70
2018-06-14T06:19:46.175Z,98218.36
2018-06-14T06:22:15.904Z,98222.61
2018-06-14T06:24:47.191Z,98227.02
2018-06-14T06:27:17.925Z,98223.88
2018-06-14T06:29:47.683Z,98219.40
2018-06-14T06:32:19.484Z,98216.69
2018-06-14T06:34:49.749Z,98230.30
2018-06-14T06:37:19.636Z,98223.44
2018-06-14T06:39:49.808Z,98226.96
2018-06-14T06:42:21.932Z,98226.38
2018-06-14T06:44:53.309Z,98226.05
2018-06-14T06:47:25.291Z,98231.33
2018-06-14T06:49:57.401Z,98229.67
2018-06-14T06:52:27.128Z,98220.84
2018-06-14T06:54:57.420Z,98224.14
2018-06-14T06:57:27.525Z,98222.60
2018-06-14T06:59:57.341Z,98220.88
2018-06-14T07:02:27.314Z,98220.22
2018-06-14T07:04:58.880Z,98220.27
2018-06-14T07:07:29.343Z,98224.49
2018-06-14T07:10:03.343Z,98224.85
2018-06-14T07:12:34.800Z,98224.77
2018-06-14T07:15:04.635Z,98221.69
2018-06-14T07:17:37.807Z,98206.03
2018-06-14T07:20:09.595Z,98208.64
2018-06-14T07:22:39.365Z,98212.05
2018-06-14T07:25:09.971Z,98207.04
2018-06-14T07:27:43.138Z,98211.39
2018-06-14T07:30:15.383Z,98207.85
2018-06-14T07:32:47.404Z,98210.59
2018-06-14T07:35:18.019Z,98217.37
2018-06-14T07:37:48.843Z,98220.53
2018-06-14T07:40:18.560Z,98225.23
2018-06-14T07:42:49.271Z,98222.36
2018-06-14T07:45:19.284Z,98218.45
2018-06-14T07:47:52.077Z,98217.69
2018-06-14T07:55:52.453Z,98218.53
2018-06-14T07:58:22.919Z,98230.79
2018-06-14T08:00:53.857Z,98233.20
2018-06-14T08:03:23.475Z,98228.80
2018-06-14T08:05:54.063Z,98234.13
2018-06-14T08:08:24.306Z,98233.91
2018-06-14T08:10:54.871Z,98230.53
2018-06-14T08:13:25.402Z,98232.41
2018-06-14T08:15:56.231Z,98233.49
2018-06-14T08:18:25.859Z,98232.97
2018-06-14T08:20:56.092Z,98233.73
2018-06-14T08:23:27.537Z,98234.14
2018-06-14T08:25:59.296Z,98241.11
2018-06-14T08:28:30.368Z,98241.88
2018-06-14T08:31:01.748Z,98238.06
2018-06-14T08:33:37.745Z,98238.84
2018-06-14T08:36:08.286Z,98226.55
2018-06-14T08:38:39.102Z,98229.55
2018-06-14T08:41:10.108Z,98234.27
2018-06-14T08:43:41.654Z,98228.27
2018-06-14T08:46:12.060Z,98224.29
2018-06-14T08:48:43.789Z,98231.77
2018-06-14T08:51:17.549Z,98235.27
2018-06-14T08:53:48.480Z,98238.24
2018-06-14T08:56:19.226Z,98235.15
2018-06-14T08:58:51.551Z,98232.39
2018-06-14T09:01:21.782Z,98236.12
2018-06-14T09:03:52.656Z,98234.34
2018-06-14T09:06:22.383Z,98233.44
2018-06-14T09:08:53.614Z,98238.09
2018-06-14T09:11:23.921Z,98232.37
2018-06-14T09:13:58.635Z,98239.75
2018-06-14T09:16:33.966Z,98231.70
2018-06-14T09:19:05.165Z,98237.39
2018-06-14T09:21:37.431Z,98240.02
2018-06-14T09:24:08.904Z,98241.48
2018-06-14T09:26:41.300Z,98243.27
2018-06-14T09:29:12.855Z,98248.77
2018-06-14T09:31:44.497Z,98245.86
2018-06-14T09:34:14.486Z,98238.39
2018-06-14T09:36:45.821Z,98237.38
2018-06-14T09:39:15.594Z,98232.30
2018-06-14T09:41:47.220Z,98236.22
2018-06-14T09:44:17.142Z,98232.71
2018-06-14T09:46:47.627Z,98230.98
2018-06-14T09:49:18.392Z,98232.26
2018-06-14T09:51:48.898Z,98227.98
2018-06-14T09:54:18.572Z,98234.73
2018-06-14T09:56:48.395Z,98233.53
2018-06-14T09:59:18.884Z,98234.65
2018-06-14T10:01:48.693Z,98233.42
2018-06-14T10:04:18.491Z,98229.70
2018-06-14T10:06:48.562Z,98231.64
2018-06-14T10:09:21.080Z,98232.08
2018-06-14T10:11:51.423Z,98229.67
2018-06-14T10:14:26.326Z,98225.39
2018-06-14T10:16:58.208Z,98230.05
2018-06-14T10:19:28.265Z,98233.45
2018-06-14T10:22:03.416Z,98222.84
2018-06-14T10:24:33.756Z,98227.09
2018-06-14T10:27:04.090Z,98218.80
2018-06-14T10:29:34.552Z,98223.48
2018-06-14T10:32:04.800Z,98223.16
2018-06-14T10:34:36.748Z,98214.47
2018-06-14T10:37:06.604Z,98215.45
2018-06-14T10:39:37.651Z,98220.74
2018-06-14T10:42:08.039Z,98221.58
2018-06-14T10:44:38.836Z,98218.80
2018-06-14T10:47:10.738Z,98214.95
2018-06-14T10:49:40.713Z,98205.48
2018-06-14T10:52:11.469Z,98209.98
2018-06-14T10:54:41.337Z,98219.25
2018-06-14T10:57:11.089Z,98213.60
2018-06-14T10:59:41.119Z,98221.47
2018-06-14T11:02:13.122Z,98224.42
2018-06-14T11:04:49.348Z,98207.66
2018-06-14T11:07:23.185Z,98213.86
2018-06-14T11:09:54.023Z,98206.59
2018-06-14T11:12:24.324Z,98210.63
2018-06-14T11:14:54.461Z,98196.55
2018-06-14T11:17:25.167Z,98204.30
2018-06-14T11:19:55.459Z,98202.67
2018-06-14T11:22:25.850Z,98194.78
2018-06-14T11:25:00.758Z,98203.61
2018-06-14T11:27:31.428Z,98207.60
2018-06-14T11:30:04.452Z,98196.80
2018-06-14T11:32:35.960Z,98190.84
2018-06-14T11:35:17.312Z,98199.28
2018-06-14T11:37:47.466Z,98191.16
2018-06-14T11:40:17.737Z,98204.45
2018-06-14T11:42:47.607Z,98202.70
2018-06-14T11:45:17.739Z,98201.08
2018-06-14T11:47:48.459Z,98201.98
2018-06-14T11:50:18.413Z,98207.02
2018-06-14T11:52:48.493Z,98206.83
2018-06-14T11:55:18.420Z,98206.88
2018-06-14T11:57:48.782Z,98208.58
2018-06-14T12:00:29.264Z,98206.95
2018-06-14T12:02:59.176Z,98213.22
2018-06-14T12:05:29.244Z,98212.00
2018-06-14T12:08:02.763Z,98211.84
2018-06-14T12:10:34.091Z,98186.78
2018-06-14T12:13:06.543Z,98185.72
2018-06-14T12:15:39.289Z,98182.13
2018-06-14T12:18:10.019Z,98183.00
2018-06-14T12:20:40.345Z,98179.44
2018-06-14T12:23:11.837Z,98184.82
2018-06-14T12:25:44.905Z,98179.47
2018-06-14T12:28:14.905Z,98170.88
2018-06-14T12:30:48.707Z,98170.12
2018-06-14T12:33:19.330Z,98165.70
2018-06-14T12:35:51.407Z,98164.48
2018-06-14T12:38:21.538Z,98173.68
2018-06-14T12:40:52.357Z,98163.83
2018-06-14T12:43:23.356Z,98160.91
2018-06-14T12:45:54.076Z,98154.91
2018-06-14T12:48:24.246Z,98154.80
2018-06-14T12:50:59.711Z,98144.50
2018-06-14T12:53:30.324Z,98136.51
2018-06-14T12:56:01.298Z,98134.28
2018-06-14T12:58:33.499Z,98130.08
2018-06-14T13:01:06.347Z,98132.28
2018-06-14T13:03:37.618Z,98135.69
2018-06-14T13:06:08.002Z,98135.66
2018-06-14T13:08:41.169Z,98123.59
2018-06-14T13:11:11.984Z,98123.33
2018-06-14T13:13:41.798Z,98127.05
2018-06-14T13:16:12.898Z,98131.32
2018-06-14T13:18:46.190Z,98133.79
2018-06-14T13:21:20.097Z,98141.72
2018-06-14T13:23:51.674Z,98147.92
2018-06-14T13:26:22.058Z,98146.18
2018-06-14T13:28:52.717Z,98140.11
2018-06-14T13:31:26.107Z,98145.88
2018-06-14T13:33:56.541Z,98141.79
2018-06-14T13:36:28.108Z,98130.20
2018-06-14T13:38:57.945Z,98123.33
2018-06-14T13:44:13.436Z,98106.92
2018-06-14T13:46:45.362Z,98104.85
2018-06-14T13:49:17.169Z,98099.51
2018-06-14T13:51:50.715Z,98098.22
2018-06-14T13:54:23.575Z,98104.22
2018-06-14T13:56:54.405Z,98103.34
2018-06-14T13:59:24.280Z,98108.05
2018-06-14T14:01:54.244Z,98107.02
2018-06-14T14:04:28.309Z,98107.66
2018-06-14T14:07:05.202Z,98117.97
2018-06-14T14:09:36.685Z,98116.56
2018-06-14T14:12:07.503Z,98112.84
2018-06-14T14:14:37.411Z,98106.13
2018-06-14T14:17:08.792Z,98105.48
2018-06-14T14:19:44.702Z,98112.86
2018-06-14T14:22:16.743Z,98107.85
2018-06-14T14:24:49.327Z,98106.51
2018-06-14T14:27:20.841Z,98098.91
2018-06-14T14:29:52.227Z,98100.00
2018-06-14T14:32:24.884Z,98100.19
2018-06-14T14:34:56.459Z,98093.34
2018-06-14T14:37:28.437Z,98088.03
2018-06-14T14:39:59.159Z,98091.60
2018-06-14T14:42:30.198Z,98083.81
2018-06-14T14:45:01.182Z,98090.52
2018-06-14T14:47:31.465Z,98094.03
2018-06-14T14:50:03.228Z,98091.55
2018-06-14T14:52:36.175Z,98086.34
2018-06-14T14:55:07.111Z,98081.63
2018-06-14T14:57:38.138Z,98073.37
2018-06-14T15:00:14.995Z,98075.16
2018-06-14T15:02:50.640Z,98078.05
2018-06-14T15:05:24.758Z,98063.20
2018-06-14T15:07:57.551Z,98061.40
2018-06-14T15:10:28.333Z,98058.47
2018-06-14T15:13:02.574Z,98061.26
2018-06-14T15:15:38.303Z,98059.74
2018-06-14T15:18:10.192Z,98056.92
2018-06-14T15:20:43.470Z,98055.67
2018-06-14T15:23:17.535Z,98056.18
2018-06-14T15:25:47.781Z,98059.86
2018-06-14T15:28:29.706Z,98055.34
2018-06-14T15:31:02.275Z,98053.71
2018-06-14T15:33:34.096Z,98059.09
2018-06-14T15:36:09.891Z,98049.77
2018-06-14T15:38:43.584Z,98042.41
2018-06-14T15:41:16.646Z,98035.23
2018-06-14T15:43:47.321Z,98027.48
2018-06-14T15:46:32.789Z,98025.69
2018-06-14T15:49:06.232Z,98029.00
2018-06-14T15:51:38.787Z,98025.19
2018-06-14T15:54:12.790Z,98020.52
2018-06-14T15:56:43.684Z,98014.56
2018-06-14T15:59:16.305Z,98017.37
2018-06-14T16:01:49.383Z,98017.28
2018-06-14T16:04:20.312Z,98018.99
2018-06-14T16:06:50.852Z,98010.84
2018-06-14T16:09:20.915Z,98014.63
2018-06-14T16:11:53.778Z,98012.80
2018-06-14T16:14:26.705Z,98017.01
2018-06-14T16:17:05.451Z,98023.55
2018-06-14T16:19:39.974Z,98024.61
2018-06-14T16:22:21.198Z,98022.44
2018-06-14T16:24:53.167Z,98016.14
2018-06-14T16:27:38.694Z,98016.78
2018-06-14T16:30:17.931Z,98024.87
2018-06-14T16:32:50.671Z,98023.50
2018-06-14T16:35:21.915Z,98018.80
2018-06-14T16:37:52.092Z,98020.13
2018-06-14T16:40:22.413Z,98022.83
2018-06-14T16:42:59.257Z,98019.38
2018-06-14T16:45:33.710Z,98025.77
2018-06-14T16:48:05.537Z,98027.19
2018-06-14T16:50:36.594Z,98023.93
2018-06-14T16:53:07.823Z,98022.29
2018-06-14T16:55:39.644Z,98020.72
2018-06-14T16:58:16.494Z,98018.59
2018-06-14T17:00:47.281Z,98025.08
2018-06-14T17:03:18.310Z,98024.23
2018-06-14T17:05:50.431Z,98024.58
2018-06-14T17:08:21.008Z,98020.94
2018-06-14T17:10:51.511Z,98009.16
2018-06-14T17:13:27.151Z,98014.50
2018-06-14T17:15:59.373Z,98018.67
2018-06-14T17:18:37.177Z,98012.29
2018-06-14T17:21:09.369Z,98015.62
2018-06-14T17:23:43.408Z,98017.63
2018-06-14T17:26:15.345Z,98019.10
2018-06-14T17:28:45.895Z,98019.90
2018-06-14T17:31:20.837Z,98017.38
2018-06-14T17:33:55.272Z,98016.69
2018-06-14T17:36:32.443Z,97865.00
2018-06-14T17:39:02.525Z,98017.15
2018-06-14T17:41:32.557Z,98017.13
2018-06-14T17:44:05.108Z,98019.13
2018-06-14T17:46:41.749Z,98024.64
2018-06-14T17:49:14.378Z,98023.17
2018-06-14T17:51:45.818Z,98025.42
2018-06-14T17:54:16.004Z,98022.06
2018-06-14T17:56:55.423Z,98028.04
2018-06-14T17:59:33.233Z,98033.11
2018-06-14T18:02:04.431Z,98037.80
2018-06-14T18:04:36.364Z,98048.95
2018-06-14T18:07:11.043Z,98053.95
2018-06-14T18:09:43.326Z,98059.44
2018-06-14T18:12:15.321Z,98058.44
2018-06-14T18:14:46.352Z,98061.78
2018-06-14T18:17:17.549Z,98054.78
2018-06-14T18:19:54.432Z,98064.25
2018-06-14T18:22:26.670Z,98069.03
2018-06-14T18:25:01.087Z,98076.12
2018-06-14T18:27:31.238Z,98069.86
2018-06-14T18:30:04.851Z,98073.53
2018-06-14T18:32:37.463Z,98078.00
2018-06-14T18:35:10.390Z,98072.70
2018-06-14T18:37:53.535Z,98077.28
2018-06-14T18:40:34.233Z,98082.87
2018-06-14T18:43:22.204Z,98083.39
2018-06-14T18:45:55.200Z,98087.23
2018-06-14T18:48:29.329Z,98093.29
2018-06-14T18:51:04.530Z,98093.99
2018-06-14T18:53:47.246Z,98093.42
2018-06-14T18:56:24.171Z,98093.52
2018-06-14T18:58:57.233Z,98101.71
2018-06-14T19:01:28.018Z,98104.52
2018-06-14T19:04:03.866Z,98108.82
2018-06-14T19:06:36.904Z,98107.39
2018-06-14T19:09:14.028Z,98111.17
2018-06-14T19:11:47.894Z,98114.59
2018-06-14T19:14:20.630Z,98113.38
2018-06-14T19:16:54.777Z,98106.84
2018-06-14T19:19:28.190Z,98108.53
2018-06-14T19:21:58.171Z,98113.44
2018-06-14T19:24:28.642Z,98112.83
2018-06-14T19:26:59.542Z,98118.02
2018-06-14T19:29:30.591Z,98126.19
2018-06-14T19:32:03.373Z,98125.14
2018-06-14T19:34:34.815Z,98133.91
2018-06-14T19:37:09.271Z,98143.33
2018-06-14T19:39:41.687Z,98142.83
2018-06-14T19:42:15.464Z,98137.88
2018-06-14T19:44:48.651Z,98151.41
2018-06-14T19:47:21.921Z,98154.34
2018-06-14T19:50:05.888Z,98151.59
2018-06-14T19:52:41.110Z,98153.95
2018-06-14T19:55:15.100Z,98160.19
2018-06-14T19:57:47.341Z,98164.87
2018-06-14T20:00:19.397Z,98173.13
2018-06-14T20:02:55.320Z,98177.59
2018-06-14T20:05:28.717Z,98183.72
2018-06-14T20:08:05.800Z,98183.28
2018-06-14T20:10:38.405Z,98181.92
2018-06-14T20:13:11.060Z,98179.53
2018-06-14T20:15:46.197Z,98188.49
2018-06-14T20:18:19.595Z,98186.91
2018-06-14T20:20:49.965Z,98184.08
2018-06-14T20:23:26.196Z,98189.27
2018-06-14T20:26:00.077Z,98186.76
2018-06-14T20:28:33.717Z,98193.50
2018-06-14T20:31:05.909Z,98195.57
2018-06-14T20:33:37.094Z,98189.47
2018-06-14T20:36:09.512Z,98195.35
2018-06-14T20:38:41.260Z,98200.99
2018-06-14T20:41:13.570Z,98199.80
2018-06-14T20:43:48.608Z,98201.72
2018-06-14T20:46:20.926Z,98204.83
2018-06-14T20:48:55.157Z,98202.08
2018-06-14T20:51:28.679Z,98197.77
2018-06-14T20:54:02.470Z,98208.20
2018-06-14T20:56:33.968Z,98206.77
2018-06-14T20:59:06.103Z,98207.84
2018-06-14T21:01:46.549Z,98210.10
2018-06-14T21:04:18.679Z,98213.82
2018-06-14T21:06:57.084Z,98216.45
2018-06-14T21:09:30.596Z,98214.66
2018-06-14T21:12:09.142Z,98208.69
2018-06-14T21:14:45.789Z,98212.50
2018-06-14T21:17:22.107Z,98221.25
2018-06-14T21:20:00.058Z,98216.69
2018-06-14T21:22:36.684Z,98217.97
2018-06-14T21:25:08.192Z,98221.81
2018-06-14T21:27:42.101Z,98228.30
2018-06-14T21:30:14.353Z,98226.58
2018-06-14T21:32:48.271Z,98222.53
2018-06-14T21:35:22.108Z,98223.88
2018-06-14T21:37:56.574Z,98224.73
2018-06-14T21:40:37.277Z,98226.99
2018-06-14T21:43:19.622Z,98222.47
2018-06-14T21:45:53.818Z,98227.73
2018-06-14T21:48:32.094Z,98229.89
2018-06-14T21:51:27.380Z,98231.92
2018-06-14T21:54:02.829Z,98230.94
2018-06-14T21:56:33.056Z,98224.12
2018-06-14T21:59:04.394Z,98231.20
2018-06-14T22:01:34.733Z,98233.81
2018-06-14T22:04:09.166Z,98230.23
2018-06-14T22:06:40.284Z,98231.92
2018-06-14T22:09:10.424Z,98224.08
2018-06-14T22:11:42.032Z,98223.94
2018-06-14T22:14:14.412Z,98235.45
2018-06-14T22:16:45.266Z,98236.86
2018-06-14T22:19:15.475Z,98237.81
2018-06-14T22:21:58.691Z,98237.09
2018-06-14T22:24:29.700Z,98236.95
2018-06-14T22:27:00.198Z,98239.36
2018-06-14T22:29:31.186Z,98236.02
2018-06-14T22:32:05.633Z,98237.47
2018-06-14T22:34:48.586Z,98197.91
2018-06-14T22:37:18.332Z,98233.84
2018-06-14T22:39:49.110Z,98229.17
2018-06-14T22:42:20.735Z,98230.97
2018-06-14T22:44:51.187Z,98220.05
2018-06-14T22:47:25.975Z,98220.90
2018-06-14T22:49:56.084Z,98223.66
2018-06-14T22:53:02.402Z,98220.89
2018-06-14T22:55:35.160Z,98220.05
2018-06-14T22:58:06.887Z,98215.38
2018-06-14T23:01:54.646Z,98210.56
2018-06-14T23:04:26.941Z,98203.76
2018-06-14T23:07:03.177Z,98207.80
2018-06-14T23:10:42.680Z,98208.53
2018-06-14T23:13:14.073Z,98203.13
2018-06-14T23:15:44.735Z,98207.53
2018-06-14T23:18:20.219Z,98204.04
2018-06-14T23:20:51.861Z,98211.33
2018-06-14T23:23:22.214Z,98208.24
2018-06-14T23:25:53.638Z,98206.13
2018-06-14T23:28:23.388Z,98198.55
2018-06-14T23:30:55.313Z,98200.23
2018-06-14T23:33:26.806Z,98197.37
2018-06-14T23:35:56.580Z,98203.80
2018-06-14T23:38:27.230Z,98202.58
2018-06-14T23:40:56.916Z,98202.70
2018-06-14T23:43:29.943Z,98207.12
2018-06-14T23:46:00.181Z,98200.80
2018-06-14T23:48:30.120Z,98202.58
2018-06-14T23:51:02.310Z,98203.17
2018-06-14T23:53:32.410Z,98201.38
2018-06-14T23:56:02.042Z,98198.98
2018-06-14T23:58:31.765Z,98192.24
